Antananarivo, Madagascar
Current Conditions -  °F | °C
As of 3:30 PM on Thursday 30 Oct 2014 (Local Time) from FMMI Reporting Station
Broken Clouds Broken Clouds  
Wind Chill: 23°   Ceiling: 2000
Heat Index: 23°   Visibility: 6mi
Dew Point: 15°   Wind: 13mph
Humidity: 61%   Direction: 170°S
Pressure: 30.15"   Gusts: 24mph
Location:  18.89°S, 47.51°E
Report Text: FMMI 301230Z 17011G21KT 130V200 9999 BKN020CB 23/15 Q1021 BECMG30015G25KT 4000 TSRA
Loading
Personal Weather Stations






























Interactive Weather Map New forecast layout! Learn more

10-Day Weather Forecast

Advertisements
Track Severe Weather on mobile